createdAt,value
2022-11-16T00:01:52.604Z,96371.97
2022-11-16T00:04:38.075Z,96365.72
2022-11-16T00:07:23.619Z,96361.47
2022-11-16T00:10:09.707Z,96357.25
2022-11-16T00:12:55.124Z,96362.50
2022-11-16T00:15:40.682Z,96361.69
2022-11-16T00:18:26.240Z,96365.31
2022-11-16T00:21:12.041Z,96365.53
2022-11-16T00:23:58.101Z,96367.16
2022-11-16T00:26:44.609Z,96354.63
2022-11-16T00:29:31.151Z,96348.00
2022-11-16T00:32:16.350Z,96347.41
2022-11-16T00:35:01.877Z,96340.56
2022-11-16T00:37:47.399Z,96347.03
2022-11-16T00:40:33.166Z,96337.94
2022-11-16T00:43:18.532Z,96339.16
2022-11-16T00:46:05.005Z,96336.09
2022-11-16T00:48:50.407Z,96333.28
2022-11-16T00:51:36.897Z,96330.47
2022-11-16T00:54:22.489Z,96328.84
2022-11-16T00:57:08.428Z,96323.41
2022-11-16T00:59:54.589Z,96307.69
2022-11-16T01:02:41.390Z,96308.50
2022-11-16T01:05:26.915Z,96304.66
2022-11-16T01:08:12.339Z,96302.22
2022-11-16T01:11:17.902Z,96308.28
2022-11-16T01:14:05.678Z,96305.44
2022-11-16T01:16:51.289Z,96288.94
2022-11-16T01:19:38.643Z,96289.72
2022-11-16T01:22:24.858Z,96295.78
2022-11-16T01:25:11.713Z,96290.53
2022-11-16T01:27:57.060Z,96289.50
2022-11-16T01:30:51.644Z,96277.81
2022-11-16T01:33:37.273Z,96275.19
2022-11-16T01:36:24.097Z,96272.56
2022-11-16T01:39:13.041Z,96278.84
2022-11-16T01:42:06.247Z,96281.66
2022-11-16T01:44:57.669Z,96274.59
2022-11-16T01:47:44.060Z,96279.03
2022-11-16T01:50:31.092Z,96273.59
2022-11-16T01:53:19.635Z,96264.13
2022-11-16T01:56:09.617Z,96266.53
2022-11-16T01:59:06.755Z,96270.97
2022-11-16T02:01:52.422Z,96266.31
2022-11-16T02:04:39.878Z,96261.88
2022-11-16T02:08:04.264Z,96249.19
2022-11-16T02:11:20.627Z,96251.19
2022-11-16T02:14:51.191Z,96238.47
2022-11-16T02:18:05.859Z,96227.19
2022-11-16T02:21:17.286Z,96233.44
2022-11-16T02:24:06.544Z,96237.88
2022-11-16T02:27:07.432Z,96235.63
2022-11-16T02:29:55.778Z,96234.03
2022-11-16T02:32:52.139Z,96239.47
2022-11-16T02:35:43.877Z,96238.63
2022-11-16T02:38:35.416Z,96222.91
2022-11-16T02:41:24.373Z,96216.06
2022-11-16T02:44:16.004Z,96216.44
2022-11-16T02:47:05.674Z,96207.56
2022-11-16T02:49:56.792Z,96197.09
2022-11-16T02:52:42.539Z,96201.09
2022-11-16T02:55:32.735Z,96197.47
2022-11-16T02:58:23.045Z,96195.22
2022-11-16T03:01:15.233Z,96181.31
2022-11-16T03:04:12.852Z,96176.09
2022-11-16T03:07:01.287Z,96176.88
2022-11-16T03:09:50.228Z,96169.00
2022-11-16T03:12:36.125Z,96166.97
2022-11-16T03:15:22.147Z,96165.75
2022-11-16T03:18:09.083Z,96161.28
2022-11-16T03:21:07.898Z,96158.44
2022-11-16T03:23:54.034Z,96146.94
2022-11-16T03:26:54.278Z,96133.66
2022-11-16T03:29:47.951Z,96132.63
2022-11-16T03:32:56.693Z,96134.22
2022-11-16T03:35:59.715Z,96130.59
2022-11-16T03:38:47.946Z,96124.34
2022-11-16T03:41:37.301Z,96135.81
2022-11-16T03:44:23.057Z,96137.44
2022-11-16T03:47:08.618Z,96143.47
2022-11-16T03:49:53.923Z,96133.81
2022-11-16T03:52:41.533Z,96124.09
2022-11-16T03:55:27.101Z,96126.50
2022-11-16T03:58:13.043Z,96129.94
2022-11-16T04:00:58.659Z,96140.44
2022-11-16T04:03:45.642Z,96140.44
2022-11-16T04:06:49.783Z,96151.53
2022-11-16T04:09:54.032Z,96146.84
2022-11-16T04:13:03.329Z,96147.66
2022-11-16T04:16:07.612Z,96130.69
2022-11-16T04:19:11.110Z,96130.47
2022-11-16T04:22:32.032Z,96144.97
2022-11-16T04:25:30.422Z,96136.88
2022-11-16T04:28:17.580Z,96139.50
2022-11-16T04:31:26.339Z,96135.88
2022-11-16T04:34:38.948Z,96130.41
2022-11-16T04:37:43.843Z,96137.06
2022-11-16T04:40:29.639Z,96127.13
2022-11-16T04:43:15.878Z,96122.69
2022-11-16T04:46:21.469Z,96125.88
2022-11-16T04:49:07.464Z,96115.19
2022-11-16T04:51:52.975Z,96108.91
2022-11-16T04:54:38.393Z,96113.38
2022-11-16T04:57:24.579Z,96103.47
2022-11-16T05:00:10.952Z,96118.38
2022-11-16T05:03:01.467Z,96115.19
2022-11-16T05:05:49.987Z,96122.25
2022-11-16T05:08:35.968Z,96115.63
2022-11-16T05:11:23.847Z,96125.69
2022-11-16T05:14:11.027Z,96121.22
2022-11-16T05:16:58.786Z,96117.38
2022-11-16T05:20:03.940Z,96120.00
2022-11-16T05:22:58.335Z,96130.06
2022-11-16T05:25:49.155Z,96134.31
2022-11-16T05:28:37.768Z,96139.09
2022-11-16T05:31:24.826Z,96131.00
2022-11-16T05:34:11.309Z,96135.22
2022-11-16T05:36:58.388Z,96128.97
2022-11-16T05:39:43.890Z,96135.00
2022-11-16T05:42:29.371Z,96142.69
2022-11-16T05:45:20.855Z,96142.09
2022-11-16T05:48:07.295Z,96143.47
2022-11-16T05:51:01.266Z,96142.88
2022-11-16T05:53:51.489Z,96149.97
2022-11-16T05:56:40.211Z,96139.47
2022-11-16T05:59:25.576Z,96144.72
2022-11-16T06:02:14.589Z,96156.00
2022-11-16T06:05:02.318Z,96155.81
2022-11-16T06:07:47.969Z,96158.19
2022-11-16T06:10:34.553Z,96158.78
2022-11-16T06:13:21.623Z,96164.03
2022-11-16T06:16:10.395Z,96159.81
2022-11-16T06:18:56.281Z,96159.00
2022-11-16T06:21:42.860Z,96160.59
2022-11-16T06:24:34.848Z,96155.94
2022-11-16T06:27:21.768Z,96155.13
2022-11-16T06:30:08.673Z,96168.47
2022-11-16T06:32:54.351Z,96157.19
2022-11-16T06:35:40.307Z,96164.03
2022-11-16T06:38:27.895Z,96169.28
2022-11-16T06:41:14.369Z,96163.00
2022-11-16T06:44:03.929Z,96166.66
2022-11-16T06:46:54.241Z,96177.72
2022-11-16T06:49:39.685Z,96171.31
2022-11-16T06:52:31.980Z,96173.94
2022-11-16T06:55:17.492Z,96177.34
2022-11-16T06:58:02.801Z,96181.81
2022-11-16T07:00:50.552Z,96181.03
2022-11-16T07:03:36.140Z,96189.47
2022-11-16T07:06:22.679Z,96186.41
2022-11-16T07:09:09.481Z,96182.19
2022-11-16T07:11:55.292Z,96181.81
2022-11-16T07:14:41.129Z,96176.97
2022-11-16T07:17:28.384Z,96181.06
2022-11-16T07:20:14.221Z,96182.53
2022-11-16T07:23:02.312Z,96174.06
2022-11-16T07:25:48.007Z,96178.72
2022-11-16T07:28:47.731Z,96174.72
2022-11-16T07:31:35.496Z,96172.09
2022-11-16T07:34:54.604Z,96182.59
2022-11-16T07:37:39.991Z,96184.41
2022-11-16T07:40:26.574Z,96193.53
2022-11-16T07:43:15.002Z,96199.19
2022-11-16T07:46:46.068Z,96198.97
2022-11-16T07:49:33.242Z,96192.13
2022-11-16T07:52:24.857Z,96192.53
2022-11-16T07:55:10.173Z,96190.16
2022-11-16T07:57:56.726Z,96191.75
2022-11-16T08:00:41.966Z,96194.56
2022-11-16T08:03:34.365Z,96191.16
2022-11-16T08:06:28.037Z,96193.00
2022-11-16T08:09:14.386Z,96195.41
2022-11-16T08:12:00.220Z,96180.44
2022-11-16T08:14:45.786Z,96176.81
2022-11-16T08:17:32.211Z,96175.34
2022-11-16T08:20:18.187Z,96177.97
2022-11-16T08:23:05.686Z,96183.22
2022-11-16T08:26:01.347Z,96189.28
2022-11-16T08:28:50.962Z,96181.41
2022-11-16T08:31:38.287Z,96178.56
2022-11-16T08:34:29.288Z,96179.16
2022-11-16T08:37:18.897Z,96174.28
2022-11-16T08:40:05.304Z,96168.22
2022-11-16T08:42:57.235Z,96172.47
2022-11-16T08:45:47.672Z,96174.06
2022-11-16T08:48:34.408Z,96173.06
2022-11-16T08:51:21.288Z,96172.59
2022-11-16T08:54:13.273Z,96167.94
2022-11-16T08:56:59.625Z,96174.38
2022-11-16T08:59:46.981Z,96170.53
2022-11-16T09:02:32.843Z,96174.31
2022-11-16T09:05:18.460Z,96174.69
2022-11-16T09:08:05.701Z,96176.84
2022-11-16T09:10:51.473Z,96179.66
2022-11-16T09:13:37.236Z,96171.09
2022-11-16T09:16:24.035Z,96174.09
2022-11-16T09:19:10.820Z,96179.94
2022-11-16T09:21:56.586Z,96172.66
2022-11-16T09:24:41.820Z,96176.88
2022-11-16T09:27:27.460Z,96175.84
2022-11-16T09:30:12.910Z,96177.81
2022-11-16T09:32:59.148Z,96173.16
2022-11-16T09:35:44.642Z,96166.88
2022-11-16T09:38:54.221Z,96162.19
2022-11-16T09:41:53.759Z,96158.34
2022-11-16T09:44:41.958Z,96165.19
2022-11-16T09:47:49.281Z,96159.16
2022-11-16T09:50:54.690Z,96153.91
2022-11-16T09:53:53.146Z,96153.91
2022-11-16T09:56:41.782Z,96157.91
2022-11-16T09:59:41.466Z,96156.66
2022-11-16T10:02:47.091Z,96153.81
2022-11-16T10:06:03.944Z,96150.28
2022-11-16T10:08:52.120Z,96153.28
2022-11-16T10:11:48.886Z,96149.22
2022-11-16T10:15:04.873Z,96141.88
2022-11-16T10:18:03.590Z,96137.59
2022-11-16T10:21:07.423Z,96127.66
2022-11-16T10:24:08.441Z,96134.53
2022-11-16T10:27:08.061Z,96125.81
2022-11-16T10:30:02.327Z,96125.59
2022-11-16T10:32:59.569Z,96118.31
2022-11-16T10:35:53.550Z,96120.25
2022-11-16T10:38:40.293Z,96115.59
2022-11-16T10:41:40.026Z,96109.28
2022-11-16T10:44:34.375Z,96106.22
2022-11-16T10:47:38.662Z,96104.19
2022-11-16T10:50:37.834Z,96093.44
2022-11-16T10:53:34.647Z,96090.34
2022-11-16T10:56:31.871Z,96093.34
2022-11-16T10:59:20.608Z,96088.91
2022-11-16T11:02:25.011Z,96093.34
2022-11-16T11:05:21.637Z,96090.94
2022-11-16T11:08:11.431Z,96086.69
2022-11-16T11:11:25.106Z,96081.44
2022-11-16T11:14:15.716Z,96080.78
2022-11-16T11:17:12.526Z,96077.91
2022-11-16T11:20:05.608Z,96082.75
2022-11-16T11:22:57.314Z,96090.97
2022-11-16T11:25:55.753Z,96087.31
2022-11-16T11:28:47.792Z,96086.06
2022-11-16T11:31:44.335Z,96082.97
2022-11-16T11:34:42.823Z,96086.19
2022-11-16T11:37:34.216Z,96087.19
2022-11-16T11:40:22.639Z,96093.47
2022-11-16T11:43:22.860Z,96093.47
2022-11-16T11:46:50.233Z,96091.09
2022-11-16T11:49:40.308Z,96091.88
2022-11-16T11:52:39.069Z,96086.06
2022-11-16T11:55:24.926Z,96081.00
2022-11-16T11:58:18.282Z,96080.22
2022-11-16T12:01:41.506Z,96078.19
2022-11-16T12:04:38.945Z,96070.06
2022-11-16T12:07:42.121Z,96069.81
2022-11-16T12:10:51.091Z,96067.00
2022-11-16T12:14:08.930Z,96069.94
2022-11-16T12:17:19.156Z,96076.38
2022-11-16T12:20:37.736Z,96066.44
2022-11-16T12:23:41.797Z,96063.81
2022-11-16T12:26:43.586Z,96070.97
2022-11-16T12:30:08.117Z,96060.25
2022-11-16T12:33:18.020Z,96055.56
2022-11-16T12:36:40.725Z,96056.38
2022-11-16T12:39:58.097Z,96057.72
2022-11-16T12:43:11.391Z,96063.53
2022-11-16T12:46:10.455Z,96054.63
2022-11-16T12:49:20.403Z,96052.00
2022-11-16T12:52:09.078Z,96055.22
2022-11-16T12:55:28.023Z,96058.44
2022-11-16T12:58:16.919Z,96054.97
2022-11-16T13:01:24.905Z,96059.78
2022-11-16T13:04:24.133Z,96055.31
2022-11-16T13:07:50.785Z,96053.72
2022-11-16T13:10:43.080Z,96050.06
2022-11-16T13:13:38.604Z,96045.97
2022-11-16T13:16:24.880Z,96045.38
2022-11-16T13:19:13.519Z,96051.22
2022-11-16T13:22:10.547Z,96046.50
2022-11-16T13:24:58.989Z,96043.44
2022-11-16T13:28:05.486Z,96042.16
2022-11-16T13:31:05.402Z,96034.03
2022-11-16T13:33:58.921Z,96040.91
2022-11-16T13:36:46.315Z,96033.00
2022-11-16T13:39:50.487Z,96033.00
2022-11-16T13:42:44.649Z,96033.00
2022-11-16T13:45:42.136Z,96038.03
2022-11-16T13:48:27.293Z,96026.72
2022-11-16T13:51:23.160Z,96038.03
2022-11-16T13:57:53.546Z,96025.13
2022-11-16T14:00:40.550Z,96028.78
2022-11-16T14:03:32.993Z,96032.44
2022-11-16T14:06:18.906Z,96030.84
2022-11-16T14:09:42.867Z,96029.47
2022-11-16T14:12:54.030Z,96030.53
2022-11-16T14:15:39.594Z,96026.28
2022-11-16T14:18:34.201Z,96023.66
2022-11-16T14:21:19.707Z,96026.50
2022-11-16T14:24:36.181Z,96019.66
2022-11-16T14:27:30.895Z,96016.22
2022-11-16T14:30:26.482Z,96009.34
2022-11-16T14:33:23.894Z,96017.25
2022-11-16T14:36:10.655Z,96006.97
2022-11-16T14:39:32.314Z,96020.09
2022-11-16T14:42:21.915Z,96008.56
2022-11-16T14:45:16.620Z,96000.66
2022-11-16T14:48:15.916Z,96003.53
2022-11-16T14:51:07.933Z,96002.72
2022-11-16T14:53:57.661Z,96005.34
2022-11-16T14:56:59.290Z,95994.28
2022-11-16T14:59:44.680Z,95993.47
2022-11-16T15:02:30.289Z,95991.88
2022-11-16T15:05:18.874Z,95996.34
2022-11-16T15:08:16.783Z,95995.50
2022-11-16T15:11:02.903Z,95990.25
2022-11-16T15:13:49.291Z,95986.06
2022-11-16T15:16:52.048Z,95992.09
2022-11-16T15:19:38.004Z,95994.72
2022-11-16T15:22:27.345Z,95990.50
2022-11-16T15:25:35.472Z,95987.88
2022-11-16T15:28:23.128Z,95983.44
2022-11-16T15:31:15.053Z,95981.00
2022-11-16T15:34:01.682Z,95971.50
2022-11-16T15:36:48.766Z,95975.19
2022-11-16T15:39:36.502Z,95972.56
2022-11-16T15:42:22.972Z,95965.69
2022-11-16T15:45:20.938Z,95969.94
2022-11-16T15:48:06.807Z,95973.59
2022-11-16T15:51:27.371Z,95961.47
2022-11-16T15:54:14.355Z,95962.25
2022-11-16T15:57:08.960Z,95964.88
2022-11-16T15:59:57.140Z,95960.44
2022-11-16T16:02:44.670Z,95963.06
2022-11-16T16:05:39.052Z,95966.72
2022-11-16T16:08:38.672Z,95972.56
2022-11-16T16:11:26.722Z,95960.22
2022-11-16T16:14:25.539Z,95959.97
2022-11-16T16:17:21.246Z,95964.19
2022-11-16T16:20:07.613Z,95957.91
2022-11-16T16:22:54.449Z,95970.81
2022-11-16T16:25:40.036Z,95969.00
2022-11-16T16:28:25.513Z,95971.41
2022-11-16T16:31:12.298Z,95970.38
2022-11-16T16:33:59.600Z,95970.38
2022-11-16T16:36:44.677Z,95982.50
2022-11-16T16:39:32.057Z,95983.28
2022-11-16T16:42:18.091Z,95975.16
2022-11-16T16:45:03.894Z,95974.13
2022-11-16T16:47:49.348Z,95973.69
2022-11-16T16:50:34.648Z,95976.06
2022-11-16T16:53:20.236Z,95975.84
2022-11-16T16:56:06.670Z,95974.81
2022-11-16T16:58:52.258Z,95963.50
2022-11-16T17:01:37.825Z,95970.91
2022-11-16T17:04:23.358Z,95969.88
2022-11-16T17:07:08.845Z,95972.50
2022-11-16T17:09:54.259Z,95965.66
2022-11-16T17:12:39.811Z,95968.28
2022-11-16T17:15:26.057Z,95968.03
2022-11-16T17:18:11.480Z,95968.03
2022-11-16T17:21:03.786Z,95973.31
2022-11-16T17:23:49.146Z,95966.66
2022-11-16T17:26:34.557Z,95959.59
2022-11-16T17:29:20.006Z,95954.34
2022-11-16T17:32:07.235Z,95953.53
2022-11-16T17:34:53.118Z,95955.13
2022-11-16T17:37:38.328Z,95960.38
2022-11-16T17:40:23.891Z,95963.50
2022-11-16T17:43:09.321Z,95968.53
2022-11-16T17:46:11.603Z,95970.34
2022-11-16T17:48:56.883Z,95965.66
2022-11-16T17:51:42.722Z,95956.97
2022-11-16T17:54:27.993Z,95963.00
2022-11-16T17:57:13.505Z,95959.34
2022-11-16T17:59:58.789Z,95962.00
2022-11-16T18:02:44.356Z,95956.72
2022-11-16T18:05:30.305Z,95967.50
2022-11-16T18:08:16.082Z,95964.03
2022-11-16T18:11:15.907Z,95963.00
2022-11-16T18:14:01.618Z,95967.25
2022-11-16T18:16:48.017Z,95978.56
2022-11-16T18:19:33.837Z,95974.13
2022-11-16T18:22:19.454Z,95979.13
2022-11-16T18:25:05.475Z,95977.28
2022-11-16T18:27:54.952Z,95970.22
2022-11-16T18:30:40.618Z,95965.75
2022-11-16T18:33:30.401Z,95966.31
2022-11-16T18:36:17.734Z,95963.25
2022-11-16T18:39:03.146Z,95966.66
2022-11-16T18:41:54.798Z,95965.38
2022-11-16T18:44:40.826Z,95963.34
2022-11-16T18:47:26.268Z,95951.53
2022-11-16T18:50:18.928Z,95959.19
2022-11-16T18:53:05.637Z,95952.09
2022-11-16T18:55:57.807Z,95946.84
2022-11-16T18:58:50.267Z,95957.91
2022-11-16T19:01:36.917Z,95953.47
2022-11-16T19:04:22.290Z,95951.38
2022-11-16T19:07:07.970Z,95953.00
2022-11-16T19:09:53.667Z,95958.81
2022-11-16T19:12:39.140Z,95959.41
2022-11-16T19:15:25.630Z,95950.44
2022-11-16T19:18:26.042Z,95947.59
2022-11-16T19:21:18.494Z,95940.50
2022-11-16T19:24:06.928Z,95937.06
2022-11-16T19:26:52.876Z,95937.84
2022-11-16T19:29:38.338Z,95937.84
2022-11-16T19:32:24.020Z,95927.56
2022-11-16T19:35:12.352Z,95930.44
2022-11-16T19:37:58.559Z,95931.25
2022-11-16T19:40:43.904Z,95931.00
2022-11-16T19:43:29.310Z,95927.34
2022-11-16T19:46:21.516Z,95924.47
2022-11-16T19:49:09.011Z,95926.06
2022-11-16T19:51:54.237Z,95927.66
2022-11-16T19:54:39.645Z,95928.44
2022-11-16T19:57:25.082Z,95928.44
2022-11-16T20:00:11.300Z,95927.41
2022-11-16T20:02:57.970Z,95917.91
2022-11-16T20:05:43.710Z,95916.88
2022-11-16T20:08:29.256Z,95911.63
2022-11-16T20:11:17.109Z,95916.34
2022-11-16T20:14:05.342Z,95912.91
2022-11-16T20:16:51.235Z,95922.66
2022-11-16T20:19:37.730Z,95907.88
2022-11-16T20:22:24.762Z,95900.44
2022-11-16T20:25:11.328Z,95900.34
2022-11-16T20:27:56.786Z,95897.97
2022-11-16T20:30:48.785Z,95901.31
2022-11-16T20:33:35.109Z,95899.69
2022-11-16T20:36:25.527Z,95907.03
2022-11-16T20:39:16.146Z,95909.56
2022-11-16T20:42:01.436Z,95910.03
2022-11-16T20:44:46.849Z,95904.78
2022-11-16T20:47:32.200Z,95902.06
2022-11-16T20:50:19.546Z,95901.50
2022-11-16T20:53:04.872Z,95888.69
2022-11-16T20:55:50.431Z,95892.25
2022-11-16T20:58:35.943Z,95889.53
2022-11-16T21:01:28.603Z,95898.94
2022-11-16T21:04:15.361Z,95891.75
2022-11-16T21:07:00.802Z,95891.31
2022-11-16T21:10:04.907Z,95896.13
2022-11-16T21:13:09.116Z,95897.50
2022-11-16T21:15:58.899Z,95898.09
2022-11-16T21:18:44.132Z,95910.78
2022-11-16T21:21:30.348Z,95917.03
2022-11-16T21:24:16.251Z,95906.06
2022-11-16T21:27:01.738Z,95904.34
2022-11-16T21:29:47.116Z,95912.19
2022-11-16T21:32:32.633Z,95913.34
2022-11-16T21:35:18.417Z,95912.03
2022-11-16T21:38:04.143Z,95917.84
2022-11-16T21:40:50.093Z,95913.13
2022-11-16T21:43:37.252Z,95916.28
2022-11-16T21:46:25.958Z,95904.66
2022-11-16T21:49:11.408Z,95912.94
2022-11-16T21:51:56.881Z,95913.41
2022-11-16T21:54:48.130Z,95902.91
2022-11-16T21:57:33.872Z,95902.91
2022-11-16T22:00:20.198Z,95896.84
2022-11-16T22:03:06.011Z,95893.22
2022-11-16T22:06:18.062Z,95893.22
2022-11-16T22:09:04.357Z,95891.03
2022-11-16T22:11:49.553Z,95893.31
2022-11-16T22:14:35.126Z,95896.94
2022-11-16T22:17:21.656Z,95901.38
2022-11-16T22:20:07.757Z,95901.38
2022-11-16T22:22:53.365Z,95900.16
2022-11-16T22:25:39.344Z,95894.47
2022-11-16T22:28:24.838Z,95896.19
2022-11-16T22:31:12.406Z,95888.69
2022-11-16T22:33:57.522Z,95896.91
2022-11-16T22:36:43.222Z,95885.94
2022-11-16T22:39:28.798Z,95879.25
2022-11-16T22:42:14.424Z,95887.72
2022-11-16T22:45:00.185Z,95884.84
2022-11-16T22:47:47.007Z,95876.97
2022-11-16T22:50:34.284Z,95871.50
2022-11-16T22:53:19.936Z,95869.91
2022-11-16T22:56:07.572Z,95881.66
2022-11-16T22:58:53.168Z,95882.91
2022-11-16T23:01:38.454Z,95870.78
2022-11-16T23:04:23.968Z,95876.28
2022-11-16T23:07:09.559Z,95877.53
2022-11-16T23:09:54.852Z,95868.47
2022-11-16T23:12:58.961Z,95863.00
2022-11-16T23:15:50.622Z,95865.47
2022-11-16T23:18:36.017Z,95859.06
2022-11-16T23:21:40.975Z,95854.72
2022-11-16T23:24:45.798Z,95840.47
2022-11-16T23:27:56.474Z,95840.34
2022-11-16T23:30:41.983Z,95840.63
2022-11-16T23:33:43.983Z,95828.41
2022-11-16T23:36:29.774Z,95827.78
2022-11-16T23:39:15.357Z,95823.06
2022-11-16T23:42:19.691Z,95825.97
2022-11-16T23:45:05.331Z,95825.03
2022-11-16T23:47:50.656Z,95816.66
2022-11-16T23:50:36.329Z,95822.25
2022-11-16T23:53:21.502Z,95824.94
2022-11-16T23:56:07.312Z,95822.75
2022-11-16T23:58:56.353Z,95837.09
